Time;durP1;ratioP1;P1;durP2;ratioP2;P2;SDS_P1;SDS_P2;PMS_P1;PMS_P2;Temp;Humidity;BMP_temperature;BMP_pressure;BME280_temperature;BME280_humidity;BME280_pressure;Samples;Min_cycle;Max_cycle;Signal;HPM_P1;HPM_P2
2022/04/02 00:01:19;;;;;;;17.67;13.70;;;2.90;99.90;;;;;;5058597;28;20553;-57
2022/04/02 00:03:44;;;;;;;14.43;12.87;;;3.10;99.90;;;;;;5054496;28;20205;-59
2022/04/02 00:06:10;;;;;;;15.33;13.73;;;2.80;99.90;;;;;;5053033;28;20194;-58
2022/04/02 00:08:36;;;;;;;15.40;13.37;;;3.40;99.90;;;;;;5052956;28;20208;-59
2022/04/02 00:11:02;;;;;;;13.63;12.23;;;2.20;99.90;;;;;;5045010;28;20534;-59
2022/04/02 00:13:31;;;;;;;14.15;12.75;;;2.30;99.90;;;;;;5052484;28;20289;-59
2022/04/02 00:15:58;;;;;;;15.35;13.73;;;2.80;99.90;;;;;;5058975;28;20266;-60
2022/04/02 00:18:23;;;;;;;14.98;13.45;;;2.90;99.90;;;;;;5062508;28;20698;-58
2022/04/02 00:20:49;;;;;;;15.80;13.77;;;3.10;99.90;;;;;;5053311;28;20192;-60
2022/04/02 00:25:59;;;;;;;15.55;13.90;;;2.40;99.90;;;;;;5052936;28;20427;-59
2022/04/02 00:28:25;;;;;;;14.47;12.93;;;2.90;99.90;;;;;;5053960;28;20556;-60
2022/04/02 00:30:51;;;;;;;15.37;13.77;;;3.00;99.90;;;;;;5054473;28;20194;-58
2022/04/02 00:33:16;;;;;;;14.65;12.70;;;2.90;99.90;;;;;;5060815;28;20381;-59
2022/04/02 00:35:42;;;;;;;14.97;13.37;;;3.40;99.90;;;;;;5055747;28;20679;-60
2022/04/02 00:38:08;;;;;;;16.03;14.23;;;3.20;99.90;;;;;;5038895;28;20710;-57
2022/04/02 00:40:34;;;;;;;15.27;13.70;;;3.10;99.90;;;;;;5059611;28;20212;-60
2022/04/02 00:43:00;;;;;;;16.80;15.10;;;3.00;99.90;;;;;;5056195;28;20643;-58
2022/04/02 00:45:25;;;;;;;14.90;13.20;;;3.00;99.90;;;;;;5051939;28;20268;-58
2022/04/02 00:47:51;;;;;;;16.83;15.10;;;3.00;99.90;;;;;;5052165;28;20762;-59
2022/04/02 00:50:17;;;;;;;16.70;14.37;;;2.90;99.90;;;;;;5053004;28;20268;-60
2022/04/02 00:52:44;;;;;;;16.80;15.00;;;2.80;99.90;;;;;;5051421;28;20682;-59
2022/04/02 00:55:09;;;;;;;15.65;14.05;;;2.50;99.90;;;;;;5061325;28;20189;-58
2022/04/02 00:57:35;;;;;;;15.17;13.57;;;3.00;99.90;;;;;;5051678;28;20198;-58
2022/04/02 01:00:03;;;;;;;16.30;14.17;;;2.40;99.90;;;;;;5054739;28;20217;-58
2022/04/02 01:02:28;;;;;;;16.27;14.05;;;3.00;99.90;;;;;;5038434;28;20209;-59
2022/04/02 01:04:56;;;;;;;16.37;14.53;;;2.60;99.90;;;;;;5051917;28;20182;-58
2022/04/02 01:07:22;;;;;;;17.08;14.63;;;2.80;99.90;;;;;;5060458;28;20189;-59
2022/04/02 01:09:48;;;;;;;16.10;14.40;;;3.10;99.90;;;;;;5056376;28;20251;-59
2022/04/02 01:12:14;;;;;;;16.73;14.13;;;3.10;99.90;;;;;;5049249;28;20456;-59
2022/04/02 01:14:39;;;;;;;16.20;14.40;;;3.30;99.90;;;;;;5051741;28;20265;-58
2022/04/02 01:17:05;;;;;;;15.53;13.90;;;2.50;99.90;;;;;;5054204;28;20797;-59
2022/04/02 01:19:32;;;;;;;16.67;15.00;;;2.80;99.90;;;;;;5049378;28;20215;-60
2022/04/02 01:21:58;;;;;;;15.50;13.90;;;2.50;99.90;;;;;;5048120;28;20860;-58
2022/04/02 01:24:23;;;;;;;16.20;14.17;;;2.60;99.90;;;;;;5050286;28;20182;-59
2022/04/02 01:26:49;;;;;;;15.70;14.20;;;3.30;99.90;;;;;;5055127;28;20558;-60
2022/04/02 01:29:15;;;;;;;14.80;13.30;;;3.00;99.90;;;;;;5052045;28;20477;-57
2022/04/02 01:31:44;;;;;;;16.27;14.30;;;2.90;99.90;;;;;;5062343;28;20227;-57
2022/04/02 01:34:10;;;;;;;15.73;14.02;;;3.00;99.90;;;;;;5058034;28;20273;-59
2022/04/02 01:36:36;;;;;;;15.73;13.70;;;2.40;99.90;;;;;;5047082;28;20277;-58
2022/04/02 01:39:03;;;;;;;17.50;14.93;;;3.20;99.90;;;;;;5053183;28;20972;-60
2022/04/02 01:41:28;;;;;;;16.02;14.35;;;2.80;99.90;;;;;;5056147;28;20631;-58
2022/04/02 01:43:54;;;;;;;16.40;14.77;;;3.40;99.90;;;;;;5053355;28;20178;-59
2022/04/02 01:46:19;;;;;;;14.93;13.50;;;3.30;99.90;;;;;;5054271;28;20193;-59
2022/04/02 01:48:45;;;;;;;18.43;15.30;;;3.20;99.90;;;;;;5055851;28;20655;-58
2022/04/02 01:51:12;;;;;;;15.00;13.40;;;3.20;99.90;;;;;;5052241;28;20214;-57
2022/04/02 01:53:38;;;;;;;14.55;12.90;;;3.00;99.90;;;;;;5062890;28;20462;-59
2022/04/02 01:56:04;;;;;;;14.90;11.97;;;3.00;99.90;;;;;;5053649;28;20553;-58
2022/04/02 01:58:29;;;;;;;15.30;13.70;;;3.00;99.90;;;;;;5050402;28;20193;-57
2022/04/02 02:00:55;;;;;;;14.10;12.67;;;3.50;99.90;;;;;;5053531;28;20213;-58
2022/04/02 02:03:21;;;;;;;16.25;13.18;;;3.30;99.90;;;;;;5039628;28;20201;-58
2022/04/02 02:05:47;;;;;;;14.57;13.07;;;2.70;99.90;;;;;;5045334;28;20185;-59
2022/04/02 02:08:12;;;;;;;16.20;13.87;;;3.50;99.90;;;;;;5052095;28;20455;-57
2022/04/02 02:10:38;;;;;;;13.27;11.97;;;3.30;99.90;;;;;;5060986;28;20647;-59
2022/04/02 02:13:04;;;;;;;14.37;11.97;;;3.30;99.90;;;;;;5062148;28;20573;-59
2022/04/02 02:15:29;;;;;;;15.17;13.40;;;2.80;99.90;;;;;;5058272;28;20271;-60
2022/04/02 02:17:55;;;;;;;14.10;12.70;;;2.90;99.90;;;;;;5065046;28;20184;-59
2022/04/02 02:20:21;;;;;;;13.93;12.10;;;2.80;99.90;;;;;;5060790;28;20201;-58
2022/04/02 02:22:49;;;;;;;12.17;10.93;;;2.50;99.90;;;;;;5058698;28;20451;-57
2022/04/02 02:25:16;;;;;;;13.40;12.10;;;3.10;99.90;;;;;;5050249;28;21014;-58
2022/04/02 02:27:43;;;;;;;15.63;12.48;;;3.20;99.90;;;;;;5051286;28;20232;-57
2022/04/02 02:30:10;;;;;;;13.32;12.02;;;3.50;99.90;;;;;;5052855;28;20186;-57
2022/04/02 02:32:39;;;;;;;14.07;12.27;;;2.90;99.90;;;;;;5050912;28;20213;-59
2022/04/02 02:38:11;;;;;;;13.30;11.90;;;2.80;99.90;;;;;;5049376;28;20281;-59
2022/04/02 02:40:39;;;;;;;11.35;10.25;;;2.70;99.90;;;;;;5053705;28;20224;-57
2022/04/02 02:43:06;;;;;;;12.88;11.25;;;3.00;99.90;;;;;;5057631;28;20293;-58
2022/04/02 02:45:32;;;;;;;14.32;11.68;;;3.00;99.90;;;;;;5049768;28;20189;-58
2022/04/02 02:47:58;;;;;;;11.97;10.77;;;3.00;99.90;;;;;;5050380;28;20174;-59
2022/04/02 02:50:25;;;;;;;12.55;11.35;;;2.60;99.90;;;;;;5051309;28;20534;-59
2022/04/02 02:52:51;;;;;;;13.25;11.52;;;2.70;99.90;;;;;;5050580;28;20220;-57
2022/04/02 02:55:18;;;;;;;13.50;11.43;;;2.80;99.90;;;;;;5033463;28;20194;-58
2022/04/02 02:57:44;;;;;;;13.27;11.18;;;3.20;99.90;;;;;;5054301;28;20709;-58
2022/04/02 03:00:11;;;;;;;11.85;10.52;;;2.90;99.90;;;;;;5048193;28;20214;-59
2022/04/02 03:02:37;;;;;;;12.95;11.65;;;3.20;99.90;;;;;;5050999;28;20228;-58
2022/04/02 03:05:10;;;;;;;12.77;11.40;;;2.90;99.90;;;;;;5057935;28;20213;-60
2022/04/02 03:07:48;;;;;;;12.30;11.10;;;3.10;99.90;;;;;;5050044;28;21026;-58
2022/04/02 03:10:18;;;;;;;12.45;11.20;;;3.00;99.90;;;;;;5051120;28;20197;-60
2022/04/02 03:12:44;;;;;;;12.18;10.10;;;3.20;99.90;;;;;;5049456;28;20205;-59
2022/04/02 03:15:11;;;;;;;12.70;11.45;;;3.20;99.90;;;;;;5049237;28;20198;-59
2022/04/02 03:17:38;;;;;;;12.13;10.32;;;3.30;99.90;;;;;;5054125;28;20666;-58
2022/04/02 03:20:05;;;;;;;12.18;9.95;;;3.20;99.90;;;;;;5050358;28;20209;-59
2022/04/02 03:22:35;;;;;;;10.70;9.60;;;3.50;99.90;;;;;;5055964;28;20200;-59
2022/04/02 03:25:01;;;;;;;10.27;9.27;;;3.10;99.90;;;;;;5053443;28;20650;-58
2022/04/02 03:27:27;;;;;;;14.68;9.95;;;3.40;99.90;;;;;;5058068;28;20207;-57
2022/04/02 03:29:53;;;;;;;10.97;9.50;;;3.20;99.90;;;;;;5049094;28;20181;-59
2022/04/02 03:32:18;;;;;;;10.80;9.70;;;3.10;99.90;;;;;;5050180;28;20483;-59
2022/04/02 03:34:44;;;;;;;10.23;9.23;;;3.00;99.90;;;;;;5052668;28;20431;-58
2022/04/02 03:37:10;;;;;;;10.83;9.50;;;2.90;99.90;;;;;;5049882;28;20189;-59
2022/04/02 03:39:35;;;;;;;11.17;9.30;;;2.30;99.90;;;;;;5056800;28;20205;-59
2022/04/02 03:42:01;;;;;;;13.17;10.70;;;3.00;99.90;;;;;;5055365;28;20457;-57
2022/04/02 03:44:27;;;;;;;15.30;10.30;;;2.80;99.90;;;;;;5055653;28;20234;-61
2022/04/02 03:47:08;;;;;;;10.90;9.80;;;2.70;99.90;;;;;;5059642;28;20550;-59
2022/04/02 03:49:38;;;;;;;9.98;8.98;;;2.80;99.90;;;;;;5048240;28;21008;-59
2022/04/02 03:52:04;;;;;;;10.35;9.40;;;2.10;99.90;;;;;;5017522;28;20213;-59
2022/04/02 03:54:30;;;;;;;10.38;9.27;;;2.60;99.90;;;;;;5049784;28;20255;-60
2022/04/02 03:56:56;;;;;;;11.90;8.80;;;2.70;99.90;;;;;;5051622;28;20176;-58
2022/04/02 03:59:21;;;;;;;10.90;8.97;;;2.70;99.90;;;;;;5055783;28;20213;-58
2022/04/02 04:01:47;;;;;;;10.80;9.70;;;2.80;99.90;;;;;;5057707;28;20206;-59
2022/04/02 04:04:13;;;;;;;10.43;9.13;;;2.70;99.90;;;;;;5054450;28;20723;-57
2022/04/02 04:06:39;;;;;;;14.03;9.87;;;2.40;99.90;;;;;;5045562;28;20228;-58
2022/04/02 04:09:04;;;;;;;10.90;8.60;;;1.80;99.90;;;;;;5050098;28;20451;-59
2022/04/02 04:11:30;;;;;;;11.63;8.80;;;1.90;99.90;;;;;;5049865;28;20455;-57
2022/04/02 04:13:56;;;;;;;9.80;8.80;;;2.40;99.90;;;;;;5059082;28;20312;-59
2022/04/02 04:16:22;;;;;;;8.60;7.78;;;2.60;99.90;;;;;;5050420;28;21035;-60
2022/04/02 04:18:48;;;;;;;11.65;7.70;;;2.70;99.90;;;;;;5070218;28;20267;-57
2022/04/02 04:21:14;;;;;;;11.20;8.17;;;2.50;99.90;;;;;;5054535;28;20178;-59
2022/04/02 04:23:41;;;;;;;10.43;7.63;;;2.80;99.90;;;;;;5055703;28;20212;-60
2022/04/02 04:26:06;;;;;;;9.30;7.53;;;2.50;99.90;;;;;;5053211;28;20196;-58
2022/04/02 04:28:32;;;;;;;9.30;7.40;;;2.60;99.90;;;;;;5053515;28;20185;-57
2022/04/02 04:30:58;;;;;;;10.50;7.53;;;2.50;99.90;;;;;;5049667;28;20440;-57
2022/04/02 04:33:24;;;;;;;11.55;8.48;;;1.90;99.90;;;;;;5050165;28;21047;-55
2022/04/02 04:35:49;;;;;;;11.20;7.97;;;2.40;99.90;;;;;;5058143;28;20199;-57
2022/04/02 04:38:15;;;;;;;8.80;7.43;;;2.50;99.90;;;;;;5053955;28;20178;-58
2022/04/02 04:40:40;;;;;;;10.20;8.00;;;2.40;99.90;;;;;;5055204;28;20193;-55
2022/04/02 04:43:07;;;;;;;13.03;7.90;;;1.70;99.90;;;;;;5063868;28;20367;-56
2022/04/02 04:45:33;;;;;;;10.73;8.32;;;2.50;99.90;;;;;;5049546;28;20174;-56
2022/04/02 04:47:59;;;;;;;11.30;8.35;;;2.20;99.90;;;;;;5050742;28;20177;-56
2022/04/02 04:50:26;;;;;;;13.27;10.63;;;2.50;99.90;;;;;;5053258;28;20186;-56
2022/04/02 04:52:52;;;;;;;13.30;9.65;;;2.20;99.90;;;;;;5054291;28;20471;-57
2022/04/02 04:55:18;;;;;;;14.40;11.27;;;2.00;99.90;;;;;;5059587;28;20603;-57
2022/04/02 04:57:44;;;;;;;14.33;11.50;;;2.30;99.90;;;;;;5062538;28;20492;-56
2022/04/02 05:00:10;;;;;;;12.20;10.68;;;2.40;99.90;;;;;;5058722;28;20585;-56
2022/04/02 05:02:36;;;;;;;11.63;10.43;;;2.40;99.90;;;;;;5051547;28;20671;-55
2022/04/02 05:05:02;;;;;;;12.87;11.03;;;2.40;99.90;;;;;;5051770;28;20197;-55
2022/04/02 05:07:29;;;;;;;12.43;11.23;;;2.10;99.90;;;;;;5057857;28;20197;-56
2022/04/02 05:09:57;;;;;;;12.70;11.07;;;2.40;99.90;;;;;;5060415;28;20646;-56
2022/04/02 05:12:22;;;;;;;11.35;10.18;;;1.80;99.90;;;;;;5054328;28;20206;-56
2022/04/02 05:14:49;;;;;;;12.13;10.93;;;2.00;99.90;;;;;;5048896;28;20666;-56
2022/04/02 05:17:17;;;;;;;13.27;10.05;;;2.10;99.90;;;;;;5054798;28;20648;-57
2022/04/02 05:19:43;;;;;;;13.10;11.18;;;2.70;99.90;;;;;;5054722;28;20246;-56
2022/04/02 05:22:10;;;;;;;12.68;10.60;;;2.20;99.90;;;;;;5049166;28;20233;-56
2022/04/02 05:24:37;;;;;;;11.38;10.13;;;2.50;99.90;;;;;;5067137;28;20212;-58
2022/04/02 05:27:03;;;;;;;13.23;11.38;;;2.30;99.90;;;;;;5056264;28;20213;-56
2022/04/02 05:29:29;;;;;;;13.95;11.18;;;1.90;99.90;;;;;;5051347;28;20189;-58
2022/04/02 05:31:55;;;;;;;14.13;12.73;;;2.10;99.90;;;;;;5057967;28;20296;-58
2022/04/02 05:34:21;;;;;;;11.40;10.03;;;2.30;99.90;;;;;;5057692;28;20285;-56
2022/04/02 05:36:47;;;;;;;11.00;9.90;;;2.30;99.90;;;;;;5035510;28;20193;-58
2022/04/02 05:39:12;;;;;;;11.77;10.57;;;2.40;99.90;;;;;;5055825;28;20464;-56
2022/04/02 05:41:38;;;;;;;12.10;10.90;;;2.20;99.90;;;;;;5055324;28;20241;-57
2022/04/02 05:44:06;;;;;;;12.67;11.17;;;2.40;99.90;;;;;;5059103;28;20611;-56
2022/04/02 05:46:33;;;;;;;12.85;11.20;;;1.80;99.90;;;;;;5041253;28;20182;-57
2022/04/02 05:48:58;;;;;;;12.20;10.90;;;2.00;99.90;;;;;;5051238;28;20681;-57
2022/04/02 05:51:25;;;;;;;12.93;10.87;;;2.20;99.90;;;;;;5048934;28;20197;-58
2022/04/02 05:53:51;;;;;;;11.20;9.90;;;2.50;99.90;;;;;;5057756;28;20676;-57
2022/04/02 05:56:18;;;;;;;11.37;10.17;;;2.00;99.90;;;;;;5064573;28;20267;-57
2022/04/02 05:58:44;;;;;;;11.18;10.00;;;2.30;99.90;;;;;;5057804;28;20498;-57
2022/04/02 06:01:10;;;;;;;10.53;9.47;;;2.10;99.90;;;;;;5051271;28;20240;-59
2022/04/02 06:03:39;;;;;;;9.73;8.73;;;2.20;99.90;;;;;;5056872;28;20675;-57
2022/04/02 06:06:07;;;;;;;10.05;9.05;;;2.40;99.90;;;;;;5057470;28;20439;-58
2022/04/02 06:08:33;;;;;;;10.98;9.15;;;2.10;99.90;;;;;;5056165;28;20739;-59
2022/04/02 06:10:58;;;;;;;10.50;9.50;;;1.70;99.90;;;;;;5059026;28;20213;-58
2022/04/02 06:13:24;;;;;;;10.60;9.33;;;2.40;99.90;;;;;;5052807;28;20717;-59
2022/04/02 06:15:49;;;;;;;10.77;9.70;;;2.10;99.90;;;;;;5046184;28;20189;-58
2022/04/02 06:18:18;;;;;;;9.83;8.90;;;2.20;99.90;;;;;;5049842;28;20898;-59
2022/04/02 06:20:48;;;;;;;10.45;9.35;;;2.40;99.90;;;;;;5050345;28;20188;-57
2022/04/02 06:23:15;;;;;;;11.02;9.95;;;2.20;99.90;;;;;;5050140;28;20279;-59
2022/04/02 06:25:41;;;;;;;10.75;9.65;;;2.20;99.90;;;;;;5059429;28;20181;-57
2022/04/02 06:28:07;;;;;;;11.25;10.10;;;1.90;99.90;;;;;;5050820;28;20186;-62
2022/04/02 06:30:32;;;;;;;11.93;9.90;;;2.00;99.90;;;;;;5048479;28;20243;-62
2022/04/02 06:33:00;;;;;;;10.57;9.47;;;2.30;99.90;;;;;;5042673;28;20276;-62
2022/04/02 06:35:26;;;;;;;11.07;9.98;;;2.10;99.90;;;;;;5055066;28;20199;-62
2022/04/02 06:37:54;;;;;;;11.43;10.18;;;2.40;99.90;;;;;;5056803;28;20272;-62
2022/04/02 06:40:21;;;;;;;10.68;9.45;;;2.00;99.90;;;;;;5050745;28;20248;-62
2022/04/02 06:42:47;;;;;;;9.68;8.77;;;2.60;99.90;;;;;;5040129;28;20281;-62
2022/04/02 06:45:13;;;;;;;9.10;8.15;;;2.70;99.90;;;;;;5050879;28;20208;-62
2022/04/02 06:47:39;;;;;;;9.05;8.15;;;2.60;99.90;;;;;;5046317;28;20181;-62
2022/04/02 06:50:10;;;;;;;8.70;7.90;;;2.60;99.90;;;;;;5055515;28;20190;-62
2022/04/02 06:52:37;;;;;;;8.43;7.60;;;2.60;99.90;;;;;;5050889;28;20871;-62
2022/04/02 06:55:03;;;;;;;9.20;8.30;;;2.40;99.90;;;;;;5058331;28;20180;-62
2022/04/02 06:57:29;;;;;;;10.00;8.13;;;2.20;99.90;;;;;;5053907;28;20205;-61
2022/04/02 06:59:55;;;;;;;8.50;7.70;;;2.30;99.90;;;;;;5052932;28;20215;-61
2022/04/02 07:02:21;;;;;;;9.33;7.90;;;2.20;99.90;;;;;;5055661;28;20240;-62
2022/04/02 07:04:47;;;;;;;8.38;7.57;;;2.50;99.90;;;;;;5054532;28;20979;-61
2022/04/02 07:07:13;;;;;;;9.95;8.05;;;2.50;99.90;;;;;;5051795;28;20994;-62
2022/04/02 07:09:39;;;;;;;8.13;7.33;;;2.40;99.90;;;;;;5053209;28;20190;-61
2022/04/02 07:12:06;;;;;;;8.60;7.80;;;2.50;99.90;;;;;;5052941;28;20209;-62
2022/04/02 07:14:32;;;;;;;9.52;7.57;;;2.50;99.90;;;;;;5056357;28;20672;-62
2022/04/02 07:16:59;;;;;;;9.77;8.53;;;1.80;99.90;;;;;;5051166;28;20181;-61
2022/04/02 07:19:25;;;;;;;8.30;7.50;;;2.60;99.90;;;;;;5053809;28;20470;-62
2022/04/02 07:21:53;;;;;;;8.77;7.32;;;2.90;99.90;;;;;;5053413;28;20197;-60
2022/04/02 07:24:20;;;;;;;7.80;7.00;;;2.60;99.90;;;;;;5050090;28;20220;-62
2022/04/02 07:26:46;;;;;;;8.63;7.72;;;2.60;99.90;;;;;;5051735;28;20201;-61
2022/04/02 07:29:13;;;;;;;8.48;7.57;;;2.30;99.90;;;;;;5053655;28;20189;-62
2022/04/02 07:31:39;;;;;;;10.15;8.02;;;2.60;99.90;;;;;;5050366;28;20625;-60
2022/04/02 07:34:06;;;;;;;8.68;6.72;;;2.90;99.90;;;;;;5051183;28;20525;-63
2022/04/02 07:36:49;;;;;;;11.18;7.53;;;2.70;99.90;;;;;;5055022;28;20642;-63
2022/04/02 07:39:20;;;;;;;8.27;7.47;;;2.40;99.90;;;;;;5056279;28;20255;-65
2022/04/02 07:42:05;;;;;;;9.00;8.07;;;2.60;99.90;;;;;;5059583;28;20205;-64
2022/04/02 07:44:53;;;;;;;8.77;7.88;;;2.70;99.90;;;;;;5057229;28;20177;-61
2022/04/02 07:47:23;;;;;;;9.10;7.65;;;2.50;99.90;;;;;;5057731;28;20200;-61
2022/04/02 07:49:53;;;;;;;10.05;8.52;;;2.50;99.90;;;;;;5052452;28;20186;-61
2022/04/02 07:52:22;;;;;;;9.13;8.07;;;1.80;99.90;;;;;;5031462;28;20209;-62
2022/04/02 07:54:55;;;;;;;7.75;6.85;;;2.60;99.90;;;;;;5056209;28;20174;-62
2022/04/02 07:57:27;;;;;;;8.55;7.18;;;2.50;99.90;;;;;;5064325;28;20197;-62
2022/04/02 07:59:59;;;;;;;7.82;7.03;;;2.30;99.90;;;;;;5054815;28;20308;-62
2022/04/02 08:02:36;;;;;;;9.95;7.55;;;2.60;99.90;;;;;;5061103;28;20216;-61
2022/04/02 08:05:06;;;;;;;11.18;7.35;;;3.10;99.90;;;;;;5056020;28;20183;-61
2022/04/02 08:07:33;;;;;;;8.07;7.28;;;2.60;99.90;;;;;;5060039;28;20580;-61
2022/04/02 08:10:02;;;;;;;8.80;7.60;;;2.60;99.90;;;;;;5058493;28;20182;-61
2022/04/02 08:12:29;;;;;;;8.75;7.13;;;2.30;99.90;;;;;;5056682;28;20213;-61
2022/04/02 08:14:55;;;;;;;7.93;6.97;;;2.40;99.90;;;;;;5067766;28;20186;-61
2022/04/02 08:17:21;;;;;;;8.27;7.47;;;2.80;99.90;;;;;;5061427;28;20197;-61
2022/04/02 08:19:51;;;;;;;8.98;7.00;;;2.40;99.90;;;;;;5052015;28;20516;-60
2022/04/02 08:22:17;;;;;;;7.80;7.10;;;2.60;99.90;;;;;;5052727;28;20201;-61
2022/04/02 08:24:43;;;;;;;7.82;6.70;;;2.40;99.90;;;;;;5035323;28;20610;-61
2022/04/02 08:27:16;;;;;;;7.65;6.90;;;2.50;99.90;;;;;;5056307;28;20196;-61
2022/04/02 08:30:08;;;;;;;7.80;7.10;;;1.90;99.90;;;;;;5059821;28;20189;-61
2022/04/02 08:32:49;;;;;;;8.68;7.28;;;2.30;99.90;;;;;;5046780;28;20663;-61
2022/04/02 08:35:29;;;;;;;8.80;7.90;;;2.20;99.90;;;;;;5052696;28;20201;-61
2022/04/02 08:38:32;;;;;;;8.82;7.90;;;2.50;99.90;;;;;;5038996;28;20546;-61
2022/04/02 08:41:36;;;;;;;8.38;6.95;;;2.50;99.90;;;;;;5056718;28;20189;-61
2022/04/02 08:44:01;;;;;;;7.63;6.93;;;2.50;99.90;;;;;;5054802;28;20536;-61
2022/04/02 08:47:06;;;;;;;8.57;7.73;;;2.40;99.90;;;;;;5069630;28;20200;-62
2022/04/02 08:49:39;;;;;;;8.10;6.80;;;2.70;99.90;;;;;;5052292;28;20626;-61
2022/04/02 08:52:14;;;;;;;7.93;7.10;;;2.10;99.90;;;;;;5060531;28;20675;-62
2022/04/02 08:55:12;;;;;;;9.35;8.15;;;2.70;99.90;;;;;;5069290;28;20717;-61
2022/04/02 08:57:53;;;;;;;7.88;7.07;;;2.60;99.90;;;;;;5049125;28;20662;-62
2022/04/02 09:00:24;;;;;;;7.85;7.05;;;2.90;99.90;;;;;;5061919;28;20224;-61
2022/04/02 09:03:27;;;;;;;8.52;7.65;;;2.70;99.90;;;;;;5064539;28;20204;-62
2022/04/02 09:05:59;;;;;;;9.50;8.05;;;2.50;99.90;;;;;;5056125;28;20583;-62
2022/04/02 09:09:22;;;;;;;8.15;7.38;;;2.70;99.90;;;;;;5058578;28;20201;-61
2022/04/02 09:12:15;;;;;;;8.85;7.95;;;2.80;99.90;;;;;;4963585;28;20255;-62
2022/04/02 09:14:49;;;;;;;10.55;9.18;;;3.00;99.90;;;;;;4964795;28;20204;-61
2022/04/02 09:17:33;;;;;;;9.25;8.20;;;2.60;99.90;;;;;;5031885;28;20189;-61
2022/04/02 09:20:19;;;;;;;10.98;9.23;;;2.80;99.90;;;;;;5063685;28;20235;-61
2022/04/02 09:23:06;;;;;;;9.88;8.48;;;2.70;99.90;;;;;;5061342;28;20206;-62
2022/04/02 09:25:59;;;;;;;9.52;7.95;;;2.90;99.90;;;;;;5056287;28;20188;-61
2022/04/02 09:28:45;;;;;;;9.95;8.55;;;2.90;99.90;;;;;;5055966;28;20631;-62
2022/04/02 09:31:32;;;;;;;9.95;8.88;;;3.00;99.90;;;;;;5054479;28;20288;-62
2022/04/02 09:34:19;;;;;;;10.50;9.45;;;3.00;99.90;;;;;;5051135;28;20170;-62
2022/04/02 09:37:19;;;;;;;10.13;9.13;;;2.90;99.90;;;;;;5054375;28;20177;-61
2022/04/02 09:40:08;;;;;;;10.52;9.52;;;2.60;99.90;;;;;;5060013;28;20210;-61
2022/04/02 09:42:44;;;;;;;10.90;9.27;;;2.50;99.90;;;;;;5059786;28;20301;-61
2022/04/02 09:45:16;;;;;;;9.52;7.93;;;2.80;99.90;;;;;;5050981;28;20235;-61
2022/04/02 09:47:51;;;;;;;9.60;8.70;;;2.50;99.90;;;;;;5051034;28;20186;-62
2022/04/02 09:50:22;;;;;;;11.68;10.48;;;2.30;99.90;;;;;;5051869;28;20188;-62
2022/04/02 09:53:12;;;;;;;12.43;9.43;;;2.50;99.90;;;;;;5063237;28;20300;-62
2022/04/02 09:55:44;;;;;;;10.10;8.98;;;2.60;99.90;;;;;;5061583;28;20634;-62
2022/04/02 09:58:32;;;;;;;12.70;9.73;;;2.60;99.90;;;;;;5068951;28;20227;-62
2022/04/02 10:01:02;;;;;;;10.60;8.68;;;3.10;99.90;;;;;;5051339;28;20192;-61
2022/04/02 10:03:48;;;;;;;9.73;8.73;;;2.90;99.90;;;;;;5061439;28;20225;-62
2022/04/02 10:06:14;;;;;;;10.38;8.55;;;2.90;99.90;;;;;;5050989;28;20534;-61
2022/04/02 10:09:00;;;;;;;12.30;8.93;;;3.00;99.90;;;;;;5049251;28;20263;-62
2022/04/02 10:11:28;;;;;;;10.13;9.05;;;3.00;99.90;;;;;;5062957;28;20200;-62
2022/04/02 10:13:59;;;;;;;10.75;8.30;;;3.20;99.90;;;;;;5053668;28;20265;-60
2022/04/02 10:16:25;;;;;;;10.35;9.30;;;3.10;99.90;;;;;;5053148;28;20184;-59
2022/04/02 10:18:53;;;;;;;10.82;8.88;;;2.90;99.90;;;;;;5053057;28;20232;-62
2022/04/02 10:21:20;;;;;;;11.13;8.70;;;3.10;99.90;;;;;;5056401;28;20268;-60
2022/04/02 10:23:54;;;;;;;10.15;9.05;;;2.50;99.90;;;;;;5056109;28;20226;-61
2022/04/02 10:26:24;;;;;;;11.63;8.60;;;2.90;99.90;;;;;;5038336;28;20180;-60
2022/04/02 10:28:56;;;;;;;10.68;9.05;;;2.80;99.90;;;;;;5063790;28;20196;-60
2022/04/02 10:31:33;;;;;;;10.38;9.27;;;2.80;99.90;;;;;;5055533;28;20248;-60
2022/04/02 10:34:16;;;;;;;9.52;8.63;;;3.10;99.90;;;;;;5055017;28;20209;-60
2022/04/02 10:36:54;;;;;;;9.75;8.75;;;2.90;99.90;;;;;;5067030;28;20547;-61
2022/04/02 10:39:24;;;;;;;10.05;9.07;;;2.50;99.90;;;;;;5059668;28;20478;-60
2022/04/02 10:42:03;;;;;;;10.40;9.30;;;2.80;99.90;;;;;;5057676;28;20205;-60
2022/04/02 10:44:57;;;;;;;11.52;10.35;;;2.60;99.90;;;;;;5044055;28;20173;-61
2022/04/02 10:47:30;;;;;;;10.23;9.18;;;2.40;99.90;;;;;;5057003;28;20622;-61
2022/04/02 10:50:03;;;;;;;10.50;9.50;;;2.50;99.90;;;;;;5063453;28;20229;-61
2022/04/02 10:52:30;;;;;;;10.45;9.40;;;2.80;99.90;;;;;;5056819;28;20275;-61
2022/04/02 10:54:56;;;;;;;14.07;10.18;;;2.70;99.90;;;;;;5059417;28;20611;-60
2022/04/02 10:57:22;;;;;;;13.37;9.57;;;2.90;99.90;;;;;;5033761;28;20185;-61
2022/04/02 10:59:48;;;;;;;8.87;7.97;;;2.00;99.90;;;;;;5055734;28;20293;-60
2022/04/02 11:02:23;;;;;;;9.10;8.15;;;2.50;99.90;;;;;;5052936;28;20239;-61
2022/04/02 11:05:18;;;;;;;8.85;7.93;;;2.30;99.90;;;;;;5061044;28;20185;-61
2022/04/02 11:07:51;;;;;;;10.43;8.70;;;2.90;99.90;;;;;;5040316;28;20209;-60
2022/04/02 11:10:19;;;;;;;9.63;8.65;;;2.90;99.90;;;;;;5061158;28;20575;-60
2022/04/02 11:12:46;;;;;;;10.07;8.93;;;2.40;99.90;;;;;;5052281;28;20236;-61
2022/04/02 11:15:23;;;;;;;9.85;8.95;;;2.20;99.90;;;;;;5058117;28;20302;-60
2022/04/02 11:17:52;;;;;;;11.68;9.52;;;2.80;99.90;;;;;;5060328;28;20186;-62
2022/04/02 11:20:23;;;;;;;9.43;8.52;;;2.30;99.90;;;;;;5062643;28;20298;-61
2022/04/02 11:22:51;;;;;;;10.20;9.20;;;2.50;99.90;;;;;;5062095;28;20196;-61
2022/04/02 11:25:23;;;;;;;10.43;9.27;;;2.30;99.90;;;;;;5055676;28;20181;-61
2022/04/02 11:27:51;;;;;;;12.85;9.45;;;2.70;99.90;;;;;;5055822;28;20223;-61
2022/04/02 11:30:18;;;;;;;10.15;9.07;;;2.30;99.90;;;;;;5065489;28;20189;-60
2022/04/02 11:32:47;;;;;;;10.05;9.15;;;2.70;99.90;;;;;;5067394;28;20630;-61
2022/04/02 11:35:15;;;;;;;9.77;8.77;;;3.50;99.90;;;;;;5062534;28;20211;-60
2022/04/02 11:37:52;;;;;;;10.20;9.20;;;3.30;99.90;;;;;;5049978;28;20276;-60
2022/04/02 11:40:19;;;;;;;10.50;9.50;;;3.20;99.90;;;;;;5062385;28;20220;-62
2022/04/02 11:42:47;;;;;;;10.43;8.70;;;3.20;99.90;;;;;;5061735;28;20209;-60
2022/04/02 11:45:18;;;;;;;9.70;8.30;;;2.90;99.90;;;;;;5059376;28;20224;-59
2022/04/02 11:47:57;;;;;;;9.45;8.45;;;3.50;99.90;;;;;;5060268;28;20184;-59
2022/04/02 11:50:29;;;;;;;10.07;8.73;;;3.40;99.90;;;;;;5063644;28;20195;-61
2022/04/02 11:52:59;;;;;;;9.32;8.50;;;3.40;99.90;;;;;;5065450;28;20251;-60
2022/04/02 11:55:27;;;;;;;12.05;9.73;;;2.50;99.90;;;;;;5065501;28;20219;-60
2022/04/02 11:58:08;;;;;;;12.93;10.20;;;2.20;99.90;;;;;;5067835;28;20553;-60
2022/04/02 12:00:37;;;;;;;11.13;9.95;;;3.10;99.90;;;;;;5062597;28;20713;-61
2022/04/02 12:03:06;;;;;;;12.13;9.65;;;2.90;99.90;;;;;;5046472;28;20678;-61
2022/04/02 12:05:37;;;;;;;12.27;10.10;;;2.90;99.90;;;;;;5042981;28;20327;-60
2022/04/02 12:08:03;;;;;;;12.38;10.10;;;2.70;99.90;;;;;;5065729;28;20194;-61
2022/04/02 12:10:30;;;;;;;12.40;10.60;;;3.20;99.90;;;;;;5067712;28;20188;-61
2022/04/02 12:12:58;;;;;;;13.48;11.15;;;3.30;99.90;;;;;;5062499;28;20205;-61
2022/04/02 12:15:24;;;;;;;10.85;9.70;;;3.30;99.90;;;;;;5065124;28;20478;-62
2022/04/02 12:18:01;;;;;;;10.57;9.48;;;3.10;99.90;;;;;;5067144;28;20225;-62
2022/04/02 12:20:29;;;;;;;12.73;10.63;;;3.40;99.90;;;;;;5066582;28;20204;-60
2022/04/02 12:23:06;;;;;;;14.15;11.18;;;3.10;99.90;;;;;;5062585;28;20288;-60
2022/04/02 12:25:33;;;;;;;13.60;10.05;;;2.60;99.90;;;;;;5060381;28;20293;-60
2022/04/02 12:28:00;;;;;;;12.75;11.25;;;3.30;99.90;;;;;;5070223;28;20209;-60
2022/04/02 12:30:30;;;;;;;13.40;12.05;;;3.30;99.90;;;;;;5071812;28;20239;-60
2022/04/02 12:33:06;;;;;;;11.77;10.68;;;3.00;99.90;;;;;;5060127;28;20209;-60
2022/04/02 12:35:32;;;;;;;12.27;10.88;;;3.00;99.90;;;;;;5064761;28;20193;-61
2022/04/02 12:38:02;;;;;;;12.95;11.32;;;3.20;99.90;;;;;;5062507;28;20185;-60
2022/04/02 12:40:32;;;;;;;13.60;11.35;;;3.10;99.90;;;;;;5064182;28;20572;-61
2022/04/02 12:43:07;;;;;;;13.05;11.63;;;3.30;99.90;;;;;;5065875;28;20201;-61
2022/04/02 12:45:34;;;;;;;14.07;11.27;;;3.10;99.90;;;;;;5058239;28;20177;-60
2022/04/02 12:48:00;;;;;;;12.95;11.57;;;2.90;99.90;;;;;;5063762;28;20304;-60
2022/04/02 12:50:29;;;;;;;12.87;11.43;;;2.90;99.90;;;;;;5063990;28;20464;-61
2022/04/02 12:52:55;;;;;;;13.18;11.75;;;2.70;99.90;;;;;;5058264;28;20218;-62
2022/04/02 12:55:22;;;;;;;13.87;12.47;;;3.50;99.90;;;;;;5057726;28;20603;-61
2022/04/02 12:58:10;;;;;;;13.65;12.18;;;2.70;99.90;;;;;;5061709;28;20435;-62
2022/04/02 13:00:43;;;;;;;13.77;12.32;;;2.90;99.90;;;;;;5065448;28;20200;-61
2022/04/02 13:03:10;;;;;;;16.67;13.68;;;3.20;99.90;;;;;;5063055;28;20209;-61
2022/04/02 13:05:44;;;;;;;14.07;12.65;;;2.80;99.90;;;;;;5064171;28;20181;-61